createdAt,value
2023-01-23T00:01:53.747Z,17.50
2023-01-23T00:04:20.623Z,17.27
2023-01-23T00:06:47.862Z,20.53
2023-01-23T00:09:14.008Z,17.47
2023-01-23T00:11:40.120Z,16.80
2023-01-23T00:14:06.230Z,17.40
2023-01-23T00:16:32.940Z,19.07
2023-01-23T00:18:59.601Z,18.90
2023-01-23T00:21:27.599Z,21.00
2023-01-23T00:23:55.612Z,18.83
2023-01-23T00:26:23.221Z,17.97
2023-01-23T00:28:49.749Z,16.17
2023-01-23T00:31:18.311Z,16.93
2023-01-23T00:33:44.800Z,20.53
2023-01-23T00:36:11.821Z,20.77
2023-01-23T00:38:38.617Z,19.37
2023-01-23T00:41:05.093Z,20.97
2023-01-23T00:43:31.202Z,20.30
2023-01-23T00:45:57.698Z,18.53
2023-01-23T00:48:23.877Z,18.87
2023-01-23T00:50:50.847Z,18.67
2023-01-23T00:53:17.116Z,19.07
2023-01-23T00:55:43.899Z,21.13
2023-01-23T00:58:10.166Z,21.93
2023-01-23T01:00:36.862Z,18.43
2023-01-23T01:03:03.344Z,20.90
2023-01-23T01:05:29.487Z,23.57
2023-01-23T01:07:55.670Z,20.13
2023-01-23T01:10:21.968Z,21.60
2023-01-23T01:12:49.113Z,21.50
2023-01-23T01:15:15.259Z,22.10
2023-01-23T01:17:41.355Z,22.17
2023-01-23T01:20:08.679Z,27.03
2023-01-23T01:22:34.786Z,24.30
2023-01-23T01:25:00.931Z,23.70
2023-01-23T01:27:28.368Z,26.10
2023-01-23T01:29:55.334Z,24.83
2023-01-23T01:32:21.453Z,24.07
2023-01-23T01:34:47.577Z,25.23
2023-01-23T01:37:13.710Z,24.63
2023-01-23T01:39:39.818Z,25.13
2023-01-23T01:42:05.949Z,27.83
2023-01-23T01:44:52.147Z,23.73
2023-01-23T01:47:18.938Z,25.40
2023-01-23T01:49:45.206Z,24.90
2023-01-23T01:52:13.082Z,24.03
2023-01-23T01:54:41.401Z,24.27
2023-01-23T01:57:09.846Z,32.40
2023-01-23T01:59:38.668Z,27.70
2023-01-23T02:02:08.540Z,25.90
2023-01-23T02:04:37.929Z,29.83
2023-01-23T02:07:07.801Z,27.73
2023-01-23T02:09:34.262Z,26.77
2023-01-23T02:12:01.136Z,26.63
2023-01-23T02:14:27.425Z,23.90
2023-01-23T02:16:58.999Z,28.07
2023-01-23T02:19:39.344Z,27.03
2023-01-23T02:22:13.061Z,25.93
2023-01-23T02:24:45.762Z,24.67
2023-01-23T02:27:12.673Z,25.00
2023-01-23T02:29:42.406Z,26.20
2023-01-23T02:32:08.823Z,28.00
2023-01-23T02:34:35.225Z,26.90
2023-01-23T02:37:01.608Z,29.37
2023-01-23T02:39:27.748Z,26.93
2023-01-23T02:41:55.316Z,30.47
2023-01-23T02:44:27.246Z,27.00
2023-01-23T02:46:53.636Z,29.10
2023-01-23T02:49:21.095Z,35.97
2023-01-23T02:51:47.261Z,32.47
2023-01-23T02:54:13.386Z,29.90
2023-01-23T02:56:41.321Z,34.63
2023-01-23T02:59:25.911Z,32.13
2023-01-23T03:01:52.841Z,34.37
2023-01-23T03:04:19.137Z,35.73
2023-01-23T03:06:45.298Z,31.60
2023-01-23T03:09:13.719Z,33.27
2023-01-23T03:11:41.477Z,28.80
2023-01-23T03:14:09.769Z,33.53
2023-01-23T03:16:38.192Z,30.93
2023-01-23T03:19:08.081Z,28.67
2023-01-23T03:21:36.252Z,29.67
2023-01-23T03:24:04.182Z,28.60
2023-01-23T03:26:30.471Z,31.83
2023-01-23T03:29:14.899Z,32.23
2023-01-23T03:31:41.366Z,28.67
2023-01-23T03:34:08.147Z,29.33
2023-01-23T03:36:36.564Z,36.07
2023-01-23T03:39:22.492Z,30.33
2023-01-23T03:41:48.784Z,32.13
2023-01-23T03:44:18.061Z,30.60
2023-01-23T03:46:44.206Z,30.57
2023-01-23T03:49:10.955Z,29.03
2023-01-23T03:51:37.065Z,28.43
2023-01-23T03:54:03.371Z,26.50
2023-01-23T03:56:29.500Z,31.33
2023-01-23T03:58:55.624Z,30.77
2023-01-23T04:01:22.161Z,26.07
2023-01-23T04:03:49.290Z,23.73
2023-01-23T04:06:16.051Z,28.10
2023-01-23T04:08:42.220Z,25.70
2023-01-23T04:11:09.816Z,25.63
2023-01-23T04:13:36.106Z,23.70
2023-01-23T04:16:03.250Z,24.87
2023-01-23T04:18:29.386Z,25.57
2023-01-23T04:20:55.827Z,23.37
2023-01-23T04:23:23.147Z,24.37
2023-01-23T04:25:49.559Z,24.83
2023-01-23T04:28:16.102Z,23.33
2023-01-23T04:30:42.662Z,24.77
2023-01-23T04:33:08.835Z,22.00
2023-01-23T04:35:35.193Z,23.40
2023-01-23T04:38:01.357Z,23.80
2023-01-23T04:40:28.119Z,24.17
2023-01-23T04:42:54.649Z,25.30
2023-01-23T04:45:20.798Z,24.33
2023-01-23T04:47:46.997Z,20.97
2023-01-23T04:50:13.142Z,22.70
2023-01-23T04:52:39.266Z,22.47
2023-01-23T04:55:06.225Z,23.20
2023-01-23T04:57:33.007Z,24.10
2023-01-23T05:00:00.601Z,22.60
2023-01-23T05:02:26.943Z,23.90
2023-01-23T05:04:53.088Z,22.47
2023-01-23T05:07:19.227Z,22.20
2023-01-23T05:09:45.330Z,22.17
2023-01-23T05:12:11.450Z,23.90
2023-01-23T05:14:38.238Z,25.27
2023-01-23T05:17:04.337Z,22.93
2023-01-23T05:19:30.486Z,22.13
2023-01-23T05:21:56.628Z,23.67
2023-01-23T05:24:22.782Z,21.33
2023-01-23T05:26:48.929Z,25.50
2023-01-23T05:29:15.069Z,24.87
2023-01-23T05:31:41.983Z,24.20
2023-01-23T05:34:08.169Z,22.63
2023-01-23T05:36:34.328Z,22.27
2023-01-23T05:39:00.440Z,24.90
2023-01-23T05:41:26.548Z,20.63
2023-01-23T05:43:52.676Z,20.00
2023-01-23T05:46:18.844Z,21.57
2023-01-23T05:48:48.994Z,19.87
2023-01-23T05:51:15.159Z,22.30
2023-01-23T05:53:41.332Z,21.83
2023-01-23T05:56:08.296Z,25.10
2023-01-23T05:58:34.553Z,22.30
2023-01-23T06:01:01.768Z,21.93
2023-01-23T06:03:27.885Z,22.83
2023-01-23T06:05:54.781Z,22.90
2023-01-23T06:08:20.937Z,22.97
2023-01-23T06:10:47.083Z,20.73
2023-01-23T06:13:13.666Z,22.80
2023-01-23T06:15:40.075Z,20.50
2023-01-23T06:18:06.325Z,22.90
2023-01-23T06:20:32.480Z,19.27
2023-01-23T06:22:59.244Z,24.37
2023-01-23T06:25:25.381Z,23.67
2023-01-23T06:27:54.050Z,22.67
2023-01-23T06:30:21.326Z,23.27
2023-01-23T06:32:47.621Z,22.83
2023-01-23T06:35:13.741Z,20.77
2023-01-23T06:37:39.981Z,24.20
2023-01-23T06:40:12.283Z,22.00
2023-01-23T06:42:39.023Z,23.30
2023-01-23T06:45:06.620Z,21.77
2023-01-23T06:47:32.759Z,25.47
2023-01-23T06:49:58.896Z,21.10
2023-01-23T06:52:25.017Z,24.47
2023-01-23T06:54:51.124Z,26.10
2023-01-23T06:57:17.965Z,23.70
2023-01-23T06:59:44.109Z,23.83
2023-01-23T07:02:10.905Z,22.87
2023-01-23T07:04:37.181Z,21.50
2023-01-23T07:07:03.460Z,25.63
2023-01-23T07:09:29.601Z,22.93
2023-01-23T07:11:55.700Z,26.63
2023-01-23T07:14:22.483Z,23.60
2023-01-23T07:16:48.604Z,26.60
2023-01-23T07:19:14.770Z,25.10
2023-01-23T07:21:40.872Z,26.00
2023-01-23T07:24:07.045Z,25.17
2023-01-23T07:26:33.165Z,23.27
2023-01-23T07:28:59.430Z,24.40
2023-01-23T07:31:26.238Z,23.00
2023-01-23T07:33:52.369Z,23.73
2023-01-23T07:36:18.497Z,24.03
2023-01-23T07:38:44.725Z,26.10
2023-01-23T07:41:10.833Z,26.43
2023-01-23T07:43:37.031Z,22.07
2023-01-23T07:46:03.358Z,25.57
2023-01-23T07:48:30.196Z,28.10
2023-01-23T07:50:56.359Z,23.27
2023-01-23T07:53:22.499Z,26.00
2023-01-23T07:55:48.634Z,23.73
2023-01-23T07:58:14.729Z,26.83
2023-01-23T08:00:41.244Z,22.93
2023-01-23T08:03:07.371Z,24.17
2023-01-23T08:05:34.146Z,22.00
2023-01-23T08:08:12.685Z,24.37
2023-01-23T08:10:39.547Z,23.57
2023-01-23T08:13:05.691Z,29.57
2023-01-23T08:15:31.844Z,25.97
2023-01-23T08:17:57.949Z,23.47
2023-01-23T08:20:24.080Z,30.63
2023-01-23T08:22:50.907Z,26.27
2023-01-23T08:25:17.129Z,28.73
2023-01-23T08:27:43.251Z,28.83
2023-01-23T08:30:10.601Z,25.30
2023-01-23T08:32:36.711Z,29.50
2023-01-23T08:35:03.680Z,30.17
2023-01-23T08:37:29.804Z,34.83
2023-01-23T08:39:56.559Z,29.73
2023-01-23T08:42:22.754Z,36.83
2023-01-23T08:44:48.869Z,28.47
2023-01-23T08:47:15.076Z,34.00
2023-01-23T08:49:41.166Z,31.40
2023-01-23T08:52:07.291Z,34.77
2023-01-23T08:54:33.400Z,49.90
2023-01-23T08:57:00.256Z,49.33
2023-01-23T08:59:26.397Z,61.10
2023-01-23T09:01:52.554Z,40.33
2023-01-23T09:04:18.683Z,34.73
2023-01-23T09:06:44.775Z,32.93
2023-01-23T09:09:10.907Z,31.33
2023-01-23T09:11:37.050Z,43.50
2023-01-23T09:14:03.807Z,28.60
2023-01-23T09:16:29.952Z,29.33
2023-01-23T09:18:56.547Z,46.53
2023-01-23T09:21:22.879Z,46.03
2023-01-23T09:23:48.997Z,38.47
2023-01-23T09:26:15.392Z,35.30
2023-01-23T09:28:42.182Z,40.97
2023-01-23T09:31:10.536Z,31.33
2023-01-23T09:33:36.783Z,31.63
2023-01-23T09:36:04.069Z,32.33
2023-01-23T09:38:32.568Z,32.70
2023-01-23T09:40:59.826Z,30.27
2023-01-23T09:43:34.949Z,34.33
2023-01-23T09:46:07.486Z,26.60
2023-01-23T09:48:42.328Z,29.47
2023-01-23T09:51:13.339Z,31.17
2023-01-23T09:53:39.911Z,26.90
2023-01-23T09:56:17.477Z,30.47
2023-01-23T09:58:47.172Z,29.67
2023-01-23T10:01:13.362Z,35.00
2023-01-23T10:03:40.411Z,25.47
2023-01-23T10:06:18.629Z,40.23
2023-01-23T10:08:54.117Z,23.27
2023-01-23T10:11:23.376Z,33.57
2023-01-23T10:14:01.905Z,26.10
2023-01-23T10:16:50.061Z,26.40
2023-01-23T10:19:29.452Z,25.83
2023-01-23T10:22:00.905Z,32.67
2023-01-23T10:24:40.600Z,30.47
2023-01-23T10:27:17.767Z,24.93
2023-01-23T10:29:45.690Z,28.57
2023-01-23T10:32:20.753Z,30.40
2023-01-23T10:34:52.123Z,40.40
2023-01-23T10:37:22.007Z,30.73
2023-01-23T10:39:50.779Z,29.07
2023-01-23T10:42:19.981Z,27.10
2023-01-23T10:44:47.188Z,26.10
2023-01-23T10:47:19.516Z,25.67
2023-01-23T10:49:46.043Z,29.30
2023-01-23T10:52:29.933Z,25.53
2023-01-23T10:54:56.153Z,22.60
2023-01-23T10:57:24.149Z,24.67
2023-01-23T10:59:54.692Z,26.13
2023-01-23T11:02:26.120Z,23.90
2023-01-23T11:04:52.385Z,23.50
2023-01-23T11:07:20.425Z,25.53
2023-01-23T11:09:49.874Z,25.40
2023-01-23T11:12:18.506Z,22.03
2023-01-23T11:14:44.841Z,26.50
2023-01-23T11:17:24.848Z,24.97
2023-01-23T11:19:53.554Z,26.00
2023-01-23T11:22:29.063Z,22.67
2023-01-23T11:24:56.146Z,24.80
2023-01-23T11:27:27.084Z,25.23
2023-01-23T11:30:34.907Z,28.20
2023-01-23T11:33:05.319Z,27.50
2023-01-23T11:35:45.625Z,23.87
2023-01-23T11:38:18.013Z,23.40
2023-01-23T11:40:47.286Z,26.33
2023-01-23T11:43:14.391Z,24.23
2023-01-23T11:45:49.682Z,24.67
2023-01-23T11:48:29.661Z,26.87
2023-01-23T11:51:02.349Z,22.13
2023-01-23T11:53:41.947Z,26.07
2023-01-23T11:56:36.685Z,23.97
2023-01-23T11:59:19.186Z,23.43
2023-01-23T12:02:03.151Z,23.43
2023-01-23T12:04:44.205Z,23.93
2023-01-23T12:07:16.128Z,23.00
2023-01-23T12:09:47.366Z,21.30
2023-01-23T12:12:22.869Z,22.30
2023-01-23T12:14:55.358Z,20.73
2023-01-23T12:17:30.654Z,20.93
2023-01-23T12:20:16.735Z,22.27
2023-01-23T12:22:50.096Z,19.73
2023-01-23T12:25:22.845Z,19.97
2023-01-23T12:27:56.964Z,21.27
2023-01-23T12:30:33.144Z,20.00
2023-01-23T12:33:17.461Z,20.53
2023-01-23T12:35:49.500Z,20.23
2023-01-23T12:38:26.342Z,17.00
2023-01-23T12:41:02.325Z,18.97
2023-01-23T12:43:34.227Z,18.90
2023-01-23T12:46:04.991Z,16.10
2023-01-23T12:48:36.217Z,23.60
2023-01-23T12:51:07.264Z,16.57
2023-01-23T12:53:36.652Z,19.77
2023-01-23T12:56:05.887Z,17.03
2023-01-23T12:58:35.206Z,14.17
2023-01-23T13:01:14.539Z,14.63
2023-01-23T13:03:54.623Z,13.93
2023-01-23T13:06:28.432Z,13.80
2023-01-23T13:09:08.888Z,12.17
2023-01-23T13:11:48.924Z,12.50
2023-01-23T13:14:20.068Z,13.93
2023-01-23T13:16:47.825Z,12.97
2023-01-23T13:19:40.728Z,14.37
2023-01-23T13:22:22.220Z,13.67
2023-01-23T13:25:07.556Z,12.27
2023-01-23T13:27:41.969Z,13.13
2023-01-23T13:30:40.238Z,14.80
2023-01-23T13:33:53.807Z,13.73
2023-01-23T13:36:35.198Z,11.53
2023-01-23T13:39:24.762Z,12.93
2023-01-23T13:42:07.296Z,12.97
2023-01-23T13:44:41.583Z,12.33
2023-01-23T14:22:36.518Z,14.07
2023-01-23T14:25:03.063Z,17.53
2023-01-23T14:27:34.984Z,14.10
2023-01-23T14:30:15.070Z,12.67
2023-01-23T14:32:41.691Z,15.30
2023-01-23T14:35:16.424Z,17.23
2023-01-23T14:37:42.856Z,17.40
2023-01-23T14:40:23.365Z,17.10
2023-01-23T14:42:57.409Z,15.73
2023-01-23T14:45:23.638Z,13.07
2023-01-23T14:47:59.626Z,13.97
2023-01-23T14:50:32.149Z,13.80
2023-01-23T14:53:00.744Z,17.17
2023-01-23T14:55:30.336Z,14.73
2023-01-23T14:57:58.706Z,14.90
2023-01-23T15:00:26.067Z,15.23
2023-01-23T15:02:53.658Z,17.27
2023-01-23T15:05:22.707Z,13.00
2023-01-23T15:07:52.434Z,14.80
2023-01-23T15:10:21.537Z,11.73
2023-01-23T15:12:49.811Z,15.10
2023-01-23T15:15:18.069Z,15.27
2023-01-23T15:17:45.170Z,14.33
2023-01-23T15:20:27.378Z,15.40
2023-01-23T15:22:54.293Z,14.70
2023-01-23T15:25:30.744Z,14.47
2023-01-23T15:27:56.941Z,13.77
2023-01-23T15:30:44.351Z,16.07
2023-01-23T15:33:24.823Z,15.73
2023-01-23T15:35:50.996Z,14.70
2023-01-23T15:38:17.846Z,13.53
2023-01-23T15:40:44.099Z,13.13
2023-01-23T15:43:12.262Z,18.20
2023-01-23T15:45:38.438Z,17.37
2023-01-23T15:48:05.531Z,15.50
2023-01-23T15:50:31.756Z,14.33
2023-01-23T15:52:57.870Z,15.80
2023-01-23T15:55:26.554Z,16.47
2023-01-23T15:57:53.159Z,12.17
2023-01-23T16:00:23.938Z,12.30
2023-01-23T16:02:56.826Z,14.47
2023-01-23T16:05:25.084Z,17.23
2023-01-23T16:07:52.156Z,13.27
2023-01-23T16:10:20.454Z,12.47
2023-01-23T16:12:48.944Z,11.57
2023-01-23T16:15:16.934Z,12.87
2023-01-23T16:17:43.250Z,12.00
2023-01-23T16:20:13.108Z,13.47
2023-01-23T16:22:39.393Z,17.97
2023-01-23T16:25:06.984Z,28.10
2023-01-23T16:27:33.129Z,21.00
2023-01-23T16:29:59.846Z,19.17
2023-01-23T16:32:26.037Z,16.60
2023-01-23T16:34:52.300Z,22.37
2023-01-23T16:37:18.674Z,17.27
2023-01-23T16:39:46.081Z,17.13
2023-01-23T16:42:18.707Z,15.23
2023-01-23T16:44:44.905Z,16.73
2023-01-23T16:47:11.670Z,18.50
2023-01-23T16:49:50.955Z,21.70
2023-01-23T16:52:18.719Z,23.07
2023-01-23T16:54:44.845Z,27.50
2023-01-23T16:57:15.577Z,19.17
2023-01-23T16:59:41.839Z,19.17
2023-01-23T17:02:16.582Z,16.13
2023-01-23T17:04:42.814Z,17.93
2023-01-23T17:07:12.280Z,17.20
2023-01-23T17:09:38.395Z,15.33
2023-01-23T17:12:05.180Z,16.20
2023-01-23T17:14:31.927Z,18.97
2023-01-23T17:17:01.964Z,17.10
2023-01-23T17:19:31.014Z,17.07
2023-01-23T17:21:58.053Z,18.00
2023-01-23T17:24:24.219Z,16.30
2023-01-23T17:26:50.315Z,21.17
2023-01-23T17:29:16.562Z,27.50
2023-01-23T17:31:43.050Z,18.30
2023-01-23T17:34:15.121Z,16.63
2023-01-23T17:36:42.035Z,16.27
2023-01-23T17:39:09.457Z,17.07
2023-01-23T17:41:35.633Z,17.00
2023-01-23T17:44:01.868Z,19.20
2023-01-23T17:46:30.841Z,16.10
2023-01-23T17:48:57.090Z,13.33
2023-01-23T17:51:24.533Z,16.63
2023-01-23T17:53:51.917Z,14.53
2023-01-23T17:56:18.382Z,19.97
2023-01-23T17:58:44.789Z,18.10
2023-01-23T18:01:17.036Z,15.30
2023-01-23T18:03:43.360Z,15.90
2023-01-23T18:06:09.733Z,17.63
2023-01-23T18:08:39.404Z,23.83
2023-01-23T18:11:06.363Z,15.23
2023-01-23T18:13:38.001Z,17.30
2023-01-23T18:16:10.437Z,17.73
2023-01-23T18:18:39.152Z,20.57
2023-01-23T18:21:09.694Z,19.67
2023-01-23T18:23:37.486Z,20.27
2023-01-23T18:26:13.298Z,22.13
2023-01-23T18:28:45.783Z,15.30
2023-01-23T18:31:16.191Z,17.00
2023-01-23T18:34:01.792Z,17.23
2023-01-23T18:36:34.263Z,15.40
2023-01-23T18:39:15.529Z,18.30
2023-01-23T18:41:47.431Z,21.13
2023-01-23T18:44:16.104Z,15.57
2023-01-23T18:46:42.695Z,17.33
2023-01-23T18:49:10.302Z,16.33
2023-01-23T18:51:39.906Z,20.33
2023-01-23T18:54:19.238Z,16.90
2023-01-23T18:56:55.496Z,13.70
2023-01-23T18:59:23.279Z,13.67
2023-01-23T19:01:52.609Z,13.63
2023-01-23T19:04:25.012Z,13.10
2023-01-23T19:06:51.600Z,13.77
2023-01-23T19:09:19.913Z,14.20
2023-01-23T19:11:56.081Z,15.77
2023-01-23T19:14:36.952Z,13.23
2023-01-23T19:17:08.198Z,14.50
2023-01-23T19:19:41.291Z,14.53
2023-01-23T19:22:10.942Z,13.50
2023-01-23T19:24:37.789Z,14.90
2023-01-23T19:27:11.900Z,16.33
2023-01-23T19:29:38.466Z,22.53
2023-01-23T19:32:06.260Z,19.40
2023-01-23T19:34:33.351Z,17.43
2023-01-23T19:36:59.487Z,17.30
2023-01-23T19:39:25.670Z,17.03
2023-01-23T19:41:52.505Z,18.33
2023-01-23T19:44:21.952Z,17.07
2023-01-23T19:46:48.178Z,17.63
2023-01-23T19:49:14.346Z,16.73
2023-01-23T19:51:41.159Z,16.87
2023-01-23T19:54:08.657Z,18.33
2023-01-23T19:56:35.555Z,19.67
2023-01-23T19:59:01.815Z,18.90
2023-01-23T20:01:33.161Z,18.10
2023-01-23T20:03:59.475Z,19.13
2023-01-23T20:06:25.905Z,20.63
2023-01-23T20:08:52.632Z,16.37
2023-01-23T20:11:18.770Z,23.23
2023-01-23T20:13:44.895Z,22.83
2023-01-23T20:16:14.836Z,21.27
2023-01-23T20:18:41.644Z,24.80
2023-01-23T20:21:07.838Z,22.80
2023-01-23T20:23:34.127Z,19.73
2023-01-23T20:26:00.921Z,20.23
2023-01-23T20:28:27.347Z,18.40
2023-01-23T20:30:53.521Z,16.83
2023-01-23T20:33:19.877Z,21.53
2023-01-23T20:35:50.014Z,22.23
2023-01-23T20:38:16.148Z,23.27
2023-01-23T20:40:42.277Z,19.63
2023-01-23T20:43:08.511Z,18.00
2023-01-23T20:45:34.664Z,21.93
2023-01-23T20:48:00.812Z,21.77
2023-01-23T20:50:26.976Z,19.80
2023-01-23T20:53:11.750Z,16.90
2023-01-23T20:55:37.883Z,20.63
2023-01-23T20:58:22.596Z,21.93
2023-01-23T21:00:48.691Z,18.80
2023-01-23T21:03:14.929Z,17.67
2023-01-23T21:05:41.076Z,17.90
2023-01-23T21:08:08.407Z,15.10
2023-01-23T21:10:34.560Z,14.27
2023-01-23T21:13:00.700Z,15.47
2023-01-23T21:15:26.832Z,13.70
2023-01-23T21:17:52.965Z,16.43
2023-01-23T21:20:19.193Z,16.80
2023-01-23T21:22:45.324Z,17.10
2023-01-23T21:25:12.263Z,16.97
2023-01-23T21:27:38.509Z,13.20
2023-01-23T21:30:05.710Z,13.23
2023-01-23T21:32:32.451Z,13.27
2023-01-23T21:34:58.572Z,13.77
2023-01-23T21:37:24.866Z,14.93
2023-01-23T21:39:51.052Z,14.37
2023-01-23T21:42:17.908Z,14.90
2023-01-23T21:44:44.034Z,15.33
2023-01-23T21:47:10.178Z,15.70
2023-01-23T21:49:36.304Z,16.13
2023-01-23T21:52:02.420Z,13.87
2023-01-23T21:54:28.541Z,16.53
2023-01-23T21:56:54.745Z,17.20
2023-01-23T21:59:21.505Z,17.97
2023-01-23T22:01:47.409Z,16.50
2023-01-23T22:04:15.708Z,14.00
2023-01-23T22:06:42.927Z,15.87
2023-01-23T22:09:10.067Z,15.70
2023-01-23T22:11:36.429Z,16.47
2023-01-23T22:14:02.566Z,14.93
2023-01-23T22:16:47.083Z,19.30
2023-01-23T22:19:14.756Z,17.00
2023-01-23T22:21:40.863Z,16.10
2023-01-23T22:24:07.408Z,16.57
2023-01-23T22:26:33.563Z,15.03
2023-01-23T22:28:59.680Z,14.77
2023-01-23T22:31:25.853Z,13.37
2023-01-23T22:33:52.652Z,17.90
2023-01-23T22:36:19.538Z,17.17
2023-01-23T22:38:50.319Z,17.37
2023-01-23T22:41:16.516Z,17.73
2023-01-23T22:43:42.619Z,16.73
2023-01-23T22:46:10.842Z,16.80
2023-01-23T22:48:38.018Z,14.93
2023-01-23T22:51:06.449Z,16.93
2023-01-23T22:53:33.217Z,13.97
2023-01-23T22:56:03.837Z,18.70
2023-01-23T22:58:29.946Z,16.07
2023-01-23T23:00:56.071Z,17.77
2023-01-23T23:03:22.352Z,18.27
2023-01-23T23:05:56.153Z,15.93
2023-01-23T23:08:23.233Z,18.03
2023-01-23T23:10:57.571Z,17.87
2023-01-23T23:13:23.724Z,18.73
2023-01-23T23:15:49.856Z,20.37
2023-01-23T23:18:15.961Z,19.93
2023-01-23T23:20:42.077Z,20.53
2023-01-23T23:23:08.210Z,20.07
2023-01-23T23:25:35.199Z,18.60
2023-01-23T23:28:01.457Z,21.77
2023-01-23T23:30:27.546Z,21.53
2023-01-23T23:32:53.654Z,22.57
2023-01-23T23:35:20.126Z,21.47
2023-01-23T23:37:46.538Z,20.50
2023-01-23T23:40:12.734Z,21.87
2023-01-23T23:42:40.605Z,21.37
2023-01-23T23:45:08.137Z,22.53
2023-01-23T23:47:34.233Z,21.77
2023-01-23T23:50:00.360Z,23.17
2023-01-23T23:52:26.537Z,22.27
2023-01-23T23:54:52.631Z,23.13
2023-01-23T23:57:18.831Z,22.20
2023-01-23T23:59:45.606Z,20.07
